Time;durP1;ratioP1;P1;durP2;ratioP2;P2;SDS_P1;SDS_P2;PMS_P1;PMS_P2;Temp;Humidity;BMP_temperature;BMP_pressure;BME280_temperature;BME280_humidity;BME280_pressure;Samples;Min_cycle;Max_cycle;Signal;HPM_P1;HPM_P2
2023/12/05 00:02:26;;;;;;;17.00;10.00;;;;;;;-2.17;73.27;101390.58;107390;1267;59524;-66
2023/12/05 00:04:54;;;;;;;14.30;9.20;;;;;;;-2.24;73.24;101392.91;107424;1266;59767;-66
2023/12/05 00:07:23;;;;;;;16.50;9.60;;;;;;;-2.31;73.09;101391.33;107360;1266;71822;-66
2023/12/05 00:09:51;;;;;;;15.10;9.40;;;;;;;-2.38;73.45;101392.55;107383;1266;71381;-68
2023/12/05 00:12:19;;;;;;;14.30;9.30;;;;;;;-2.46;73.48;101394.35;107377;1267;71420;-66
2023/12/05 00:14:47;;;;;;;14.70;9.50;;;;;;;-2.52;73.60;101398.45;107418;1267;59525;-66
2023/12/05 00:17:14;;;;;;;14.20;9.60;;;;;;;-2.59;73.59;101399.47;107849;1257;60122;-66
2023/12/05 00:19:42;;;;;;;14.40;8.80;;;;;;;-2.62;73.83;101401.86;107933;1257;72047;-66
2023/12/05 00:22:10;;;;;;;14.50;9.00;;;;;;;-2.67;74.11;101405.08;107926;1260;71435;-66
2023/12/05 00:24:38;;;;;;;14.40;9.30;;;;;;;-2.70;74.18;101406.41;107939;1257;71157;-65
2023/12/05 00:27:05;;;;;;;14.30;9.10;;;;;;;-2.74;74.35;101404.42;107999;1257;60451;-67
2023/12/05 00:29:34;;;;;;;14.60;8.90;;;;;;;-2.79;74.39;101408.85;107906;1257;60030;-68
2023/12/05 00:32:03;;;;;;;14.10;8.70;;;;;;;-2.81;74.73;101410.00;107865;1257;71802;-64
2023/12/05 00:34:30;;;;;;;15.30;9.40;;;;;;;-2.84;74.63;101415.11;107843;1257;72923;-66
2023/12/05 00:36:58;;;;;;;14.90;9.40;;;;;;;-2.86;75.10;101423.73;107835;1257;71248;-66
2023/12/05 00:39:26;;;;;;;14.60;9.20;;;;;;;-2.89;75.18;101429.88;107918;1257;59269;-66
2023/12/05 00:41:53;;;;;;;16.20;9.60;;;;;;;-2.91;75.56;101433.41;108044;1257;60387;-65
2023/12/05 00:44:21;;;;;;;16.00;10.10;;;;;;;-2.93;75.93;101431.91;108018;1256;71653;-66
2023/12/05 00:46:49;;;;;;;14.40;9.00;;;;;;;-2.96;75.88;101430.42;107892;1257;72336;-66
2023/12/05 00:49:17;;;;;;;15.90;9.60;;;;;;;-2.99;76.22;101426.17;107836;1257;70520;-67
2023/12/05 00:51:47;;;;;;;14.00;8.60;;;;;;;-3.02;76.22;101424.40;108002;1256;60047;-66
2023/12/05 00:54:15;;;;;;;13.90;8.60;;;;;;;-3.07;76.46;101426.70;108061;1257;59525;-66
2023/12/05 00:56:42;;;;;;;15.40;9.70;;;;;;;-3.08;76.67;101429.30;107841;1257;73041;-65
2023/12/05 00:59:10;;;;;;;15.10;9.10;;;;;;;-3.10;76.65;101430.35;107960;1257;71403;-66
2023/12/05 01:01:38;;;;;;;14.90;8.40;;;;;;;-3.11;77.15;101435.51;108004;1257;71681;-66
2023/12/05 01:04:06;;;;;;;13.80;8.50;;;;;;;-3.13;77.23;101436.42;107793;1260;59235;-66
2023/12/05 01:06:34;;;;;;;16.00;9.50;;;;;;;-3.16;77.37;101439.30;107816;1257;59513;-66
2023/12/05 01:09:03;;;;;;;14.40;8.80;;;;;;;-3.18;77.56;101443.70;107863;1262;70524;-67
2023/12/05 01:11:31;;;;;;;13.50;8.20;;;;;;;-3.22;77.55;101444.89;107788;1257;74368;-66
2023/12/05 01:13:58;;;;;;;14.50;8.80;;;;;;;-3.24;77.77;101446.34;107855;1257;71582;-66
2023/12/05 01:16:26;;;;;;;14.30;9.10;;;;;;;-3.32;78.07;101448.09;107867;1257;60742;-67
2023/12/05 01:18:53;;;;;;;13.40;8.30;;;;;;;-3.33;78.24;101448.54;107917;1257;59388;-66
2023/12/05 01:21:21;;;;;;;14.80;9.20;;;;;;;-3.38;78.53;101449.58;107951;1257;71911;-66
2023/12/05 01:23:49;;;;;;;15.50;10.10;;;;;;;-3.40;78.58;101453.73;107807;1257;72537;-67
2023/12/05 01:26:24;;;;;;;17.50;10.40;;;;;;;-3.42;78.97;101457.55;107986;1257;72715;-67
2023/12/05 01:28:52;;;;;;;17.10;10.30;;;;;;;-3.43;78.96;101456.16;107810;1260;60816;-68
2023/12/05 01:31:19;;;;;;;15.80;10.30;;;;;;;-3.44;78.82;101459.22;107983;1257;60008;-66
2023/12/05 01:33:47;;;;;;;16.50;9.50;;;;;;;-3.47;78.87;101465.88;107880;1257;73128;-66
2023/12/05 01:36:15;;;;;;;13.60;8.60;;;;;;;-3.50;78.86;101461.34;107989;1257;71195;-66
2023/12/05 01:38:43;;;;;;;14.80;9.10;;;;;;;-3.53;79.03;101472.55;107848;1258;71683;-66
2023/12/05 01:41:11;;;;;;;15.00;9.70;;;;;;;-3.58;79.16;101468.05;107966;1257;59594;-66
2023/12/05 01:43:38;;;;;;;16.90;10.80;;;;;;;-3.62;79.17;101469.72;107976;1256;60201;-66
2023/12/05 01:46:06;;;;;;;16.60;10.30;;;;;;;-3.66;79.19;101464.38;107823;1257;73077;-66
2023/12/05 01:48:34;;;;;;;17.10;11.60;;;;;;;-3.72;79.30;101457.44;107827;1257;72063;-66
2023/12/05 01:51:03;;;;;;;19.70;11.70;;;;;;;-3.78;79.05;101455.30;108134;1257;71444;-66
2023/12/05 01:53:31;;;;;;;20.00;11.70;;;;;;;-3.81;79.18;101455.81;107852;1257;60886;-67
2023/12/05 01:55:58;;;;;;;20.40;12.40;;;;;;;-3.85;79.04;101448.21;108325;1257;59969;-66
2023/12/05 01:58:27;;;;;;;19.30;12.30;;;;;;;-3.89;79.01;101447.16;107841;1257;73112;-66
2023/12/05 02:00:54;;;;;;;21.40;12.70;;;;;;;-3.93;78.95;101445.09;107703;1257;71925;-66
2023/12/05 02:03:24;;;;;;;18.50;12.00;;;;;;;-3.95;79.04;101445.27;107803;1257;71647;-67
2023/12/05 02:05:53;;;;;;;20.10;12.40;;;;;;;-3.97;79.14;101437.42;108012;1256;59491;-66
2023/12/05 02:08:21;;;;;;;18.90;11.60;;;;;;;-4.02;78.82;101445.02;107895;1257;59383;-67
2023/12/05 02:10:48;;;;;;;20.40;12.30;;;;;;;-4.07;78.77;101448.40;107935;1262;72182;-66
2023/12/05 02:13:16;;;;;;;21.70;13.20;;;;;;;-4.13;78.68;101439.92;107855;1257;72104;-67
2023/12/05 02:15:43;;;;;;;19.70;12.50;;;;;;;-4.18;78.66;101439.35;107832;1257;72818;-67
2023/12/05 02:18:18;;;;;;;21.40;12.50;;;;;;;-4.22;78.85;101441.48;107917;1256;60490;-67
2023/12/05 02:20:53;;;;;;;21.60;13.00;;;;;;;-4.25;78.73;101441.17;107750;1262;59486;-66
2023/12/05 02:23:27;;;;;;;23.20;13.80;;;;;;;-4.26;78.88;101442.98;107901;1257;72019;-67
2023/12/05 02:25:57;;;;;;;22.60;13.50;;;;;;;-4.26;78.90;101447.02;107991;1257;72711;-67
2023/12/05 02:28:25;;;;;;;19.40;11.00;;;;;;;-4.29;79.09;101447.10;107938;1257;71465;-66
2023/12/05 02:30:53;;;;;;;23.30;14.20;;;;;;;-4.34;78.86;101448.05;107781;1258;60990;-68
2023/12/05 02:33:21;;;;;;;23.90;13.70;;;;;;;-4.38;78.90;101447.02;107885;1256;59465;-66
2023/12/05 02:35:52;;;;;;;23.10;13.50;;;;;;;-4.43;78.71;101445.21;107915;1257;71628;-68
2023/12/05 02:38:27;;;;;;;24.30;14.60;;;;;;;-4.49;78.75;101448.56;107799;1257;72474;-68
2023/12/05 02:41:34;;;;;;;24.00;14.30;;;;;;;-4.56;78.73;101448.15;107888;1257;71512;-66
2023/12/05 02:44:06;;;;;;;22.30;14.00;;;;;;;-4.61;78.86;101453.46;107586;1265;59721;-67
2023/12/05 02:46:35;;;;;;;22.10;13.10;;;;;;;-4.63;79.08;101452.89;107519;1263;59647;-67
2023/12/05 02:49:03;;;;;;;22.20;13.50;;;;;;;-4.64;79.10;101459.12;107640;1257;71775;-67
2023/12/05 02:51:31;;;;;;;21.90;13.20;;;;;;;-4.69;79.13;101454.69;107966;1257;71631;-67
2023/12/05 02:54:01;;;;;;;23.80;13.70;;;;;;;-4.75;79.14;101454.13;107883;1263;72733;-67
2023/12/05 02:56:35;;;;;;;22.50;13.40;;;;;;;-4.80;79.20;101460.16;107887;1257;60436;-67
2023/12/05 02:59:04;;;;;;;25.00;14.40;;;;;;;-4.83;79.29;101460.40;107810;1257;59996;-68
2023/12/05 03:01:38;;;;;;;23.40;14.40;;;;;;;-4.86;79.35;101455.33;107890;1256;73155;-66
2023/12/05 03:04:05;;;;;;;21.90;12.50;;;;;;;-4.89;79.55;101458.50;107892;1257;72708;-67
2023/12/05 03:06:33;;;;;;;23.40;13.90;;;;;;;-4.91;79.64;101457.00;107861;1257;71455;-67
2023/12/05 03:09:03;;;;;;;23.10;13.60;;;;;;;-4.95;79.80;101462.14;107872;1256;59503;-67
2023/12/05 03:11:31;;;;;;;22.70;13.50;;;;;;;-4.97;79.82;101467.84;107923;1258;59486;-67
2023/12/05 03:13:59;;;;;;;23.60;14.00;;;;;;;-4.99;80.04;101472.38;107932;1257;71812;-68
2023/12/05 03:16:26;;;;;;;22.10;13.50;;;;;;;-5.00;80.12;101471.61;107900;1257;72903;-67
2023/12/05 03:18:55;;;;;;;25.40;14.60;;;;;;;-5.02;80.29;101467.30;107899;1260;71720;-67
2023/12/05 03:21:23;;;;;;;24.70;14.90;;;;;;;-5.06;80.34;101467.78;107859;1261;60476;-67
2023/12/05 03:23:51;;;;;;;26.80;16.10;;;;;;;-5.05;80.44;101473.33;107849;1257;60405;-67
2023/12/05 03:26:19;;;;;;;27.10;16.10;;;;;;;-5.06;80.33;101473.42;108042;1257;71593;-69
2023/12/05 03:28:50;;;;;;;26.80;14.90;;;;;;;-5.10;80.60;101479.83;107899;1257;71988;-67
2023/12/05 03:31:18;;;;;;;28.90;16.50;;;;;;;-5.14;80.80;101475.12;107966;1258;72478;-68
2023/12/05 03:33:46;;;;;;;26.80;15.90;;;;;;;-5.16;81.07;101472.30;107989;1258;60283;-67
2023/12/05 03:36:14;;;;;;;25.80;15.50;;;;;;;-5.14;81.31;101479.12;107929;1262;60392;-67
2023/12/05 03:38:42;;;;;;;27.90;16.80;;;;;;;-5.12;81.36;101479.64;107887;1257;72631;-67
2023/12/05 03:41:10;;;;;;;27.50;15.40;;;;;;;-5.12;81.60;101478.61;108020;1258;70469;-67
2023/12/05 03:43:37;;;;;;;25.00;15.00;;;;;;;-5.15;81.61;101481.95;107867;1258;71576;-68
2023/12/05 03:46:05;;;;;;;27.80;15.70;;;;;;;-5.17;81.65;101486.66;107924;1257;60434;-67
2023/12/05 03:48:34;;;;;;;25.30;15.20;;;;;;;-5.17;81.72;101489.04;108027;1255;60251;-67
2023/12/05 03:51:02;;;;;;;27.30;15.40;;;;;;;-5.16;81.79;101490.23;107997;1260;72620;-66
2023/12/05 03:53:30;;;;;;;24.10;14.20;;;;;;;-5.14;82.03;101493.69;107811;1261;71467;-67
2023/12/05 03:55:57;;;;;;;25.30;13.50;;;;;;;-5.12;82.06;101499.96;107944;1257;71727;-67
2023/12/05 03:58:25;;;;;;;24.70;15.50;;;;;;;-5.14;82.15;101502.02;107832;1258;60294;-66
2023/12/05 04:00:53;;;;;;;25.50;14.80;;;;;;;-5.14;82.29;101503.23;107820;1260;60370;-67
2023/12/05 04:03:21;;;;;;;26.00;15.50;;;;;;;-5.13;82.45;101499.52;107989;1257;72615;-66
2023/12/05 04:05:49;;;;;;;23.70;13.50;;;;;;;-5.15;82.55;101497.23;107957;1257;72746;-66
2023/12/05 04:08:17;;;;;;;25.90;15.10;;;;;;;-5.18;82.50;101495.27;107961;1257;72724;-66
2023/12/05 04:10:44;;;;;;;25.30;15.40;;;;;;;-5.21;82.53;101488.34;107958;1260;60524;-66
2023/12/05 04:13:12;;;;;;;25.50;14.70;;;;;;;-5.20;82.71;101482.20;107949;1257;60744;-66
2023/12/05 04:15:41;;;;;;;26.00;14.50;;;;;;;-5.17;82.90;101479.86;107890;1257;73090;-66
2023/12/05 04:18:09;;;;;;;27.00;15.60;;;;;;;-5.12;83.10;101469.70;107855;1257;71405;-67
2023/12/05 04:20:37;;;;;;;26.20;15.40;;;;;;;-5.06;82.89;101470.79;107928;1260;71178;-68
2023/12/05 04:23:05;;;;;;;23.60;14.70;;;;;;;-5.03;83.18;101467.67;107912;1258;60597;-68
2023/12/05 04:25:33;;;;;;;25.90;15.40;;;;;;;-5.00;82.82;101469.83;108062;1257;60293;-67
2023/12/05 04:28:00;;;;;;;26.20;15.50;;;;;;;-4.97;82.60;101473.29;107987;1260;73907;-67
2023/12/05 04:30:28;;;;;;;24.80;15.00;;;;;;;-4.98;82.67;101473.16;108033;1257;71726;-67
2023/12/05 04:32:56;;;;;;;25.00;14.10;;;;;;;-4.99;82.43;101469.41;107959;1256;71455;-66
2023/12/05 04:35:23;;;;;;;26.50;14.70;;;;;;;-4.97;82.71;101467.36;108033;1257;60447;-66
2023/12/05 04:37:51;;;;;;;25.40;14.00;;;;;;;-4.96;82.56;101468.67;107830;1257;60251;-66
2023/12/05 04:40:19;;;;;;;22.80;14.30;;;;;;;-4.98;82.68;101471.23;107989;1257;74086;-65
2023/12/05 04:42:47;;;;;;;26.40;14.90;;;;;;;-4.94;82.60;101476.35;107944;1257;72729;-67
2023/12/05 04:45:14;;;;;;;25.80;14.90;;;;;;;-4.92;82.61;101475.66;107978;1257;71415;-67
2023/12/05 04:47:43;;;;;;;25.80;14.80;;;;;;;-4.91;82.43;101477.30;107889;1258;60700;-66
2023/12/05 04:50:11;;;;;;;26.40;16.10;;;;;;;-4.91;82.36;101479.20;108083;1257;60405;-67
2023/12/05 04:52:39;;;;;;;24.10;14.50;;;;;;;-4.92;82.23;101476.70;107958;1257;73962;-68
2023/12/05 04:55:08;;;;;;;25.30;14.50;;;;;;;-4.95;82.25;101482.16;107883;1257;70593;-67
2023/12/05 04:57:35;;;;;;;23.70;13.70;;;;;;;-4.94;82.29;101482.92;108082;1257;72702;-67
2023/12/05 05:00:05;;;;;;;23.00;14.20;;;;;;;-4.97;82.13;101485.05;107933;1256;60431;-67
2023/12/05 05:02:32;;;;;;;25.10;14.60;;;;;;;-5.01;81.98;101487.86;107970;1257;60227;-66
2023/12/05 05:05:00;;;;;;;26.80;15.10;;;;;;;-5.03;81.96;101489.45;107944;1257;72368;-66
2023/12/05 05:07:28;;;;;;;21.30;13.00;;;;;;;-5.05;81.81;101490.67;107880;1257;72176;-67
2023/12/05 05:09:56;;;;;;;25.70;15.10;;;;;;;-5.07;81.77;101492.40;107884;1257;71785;-67
2023/12/05 05:12:24;;;;;;;24.90;15.20;;;;;;;-5.09;81.66;101490.48;107811;1260;61727;-67
2023/12/05 05:14:51;;;;;;;25.40;14.20;;;;;;;-5.07;81.61;101487.90;107921;1256;60350;-66
2023/12/05 05:17:20;;;;;;;24.40;13.90;;;;;;;-5.04;81.70;101488.83;107906;1257;72611;-67
2023/12/05 05:19:48;;;;;;;24.10;15.10;;;;;;;-5.02;81.65;101487.75;107979;1257;71361;-67
2023/12/05 05:22:16;;;;;;;26.40;14.90;;;;;;;-5.00;81.67;101490.05;107960;1260;71227;-67
2023/12/05 05:24:44;;;;;;;27.60;15.80;;;;;;;-4.98;81.68;101494.08;107838;1260;61648;-67
2023/12/05 05:27:12;;;;;;;24.90;15.20;;;;;;;-4.98;81.31;101498.38;107959;1256;60279;-67
2023/12/05 05:29:40;;;;;;;24.10;14.90;;;;;;;-4.97;81.53;101499.86;108009;1256;74062;-69
2023/12/05 05:32:08;;;;;;;24.70;14.50;;;;;;;-4.97;81.56;101502.23;107744;1257;72739;-67
2023/12/05 05:34:35;;;;;;;22.90;13.90;;;;;;;-4.97;81.48;101503.10;108164;1257;71174;-66
2023/12/05 05:37:04;;;;;;;29.30;14.30;;;;;;;-4.98;81.44;101502.55;107778;1258;60565;-68
2023/12/05 05:39:35;;;;;;;23.00;13.50;;;;;;;-5.01;81.40;101507.96;107860;1256;60221;-67
2023/12/05 05:42:04;;;;;;;23.40;13.70;;;;;;;-5.02;81.30;101514.89;107843;1256;72649;-67
2023/12/05 05:44:32;;;;;;;27.20;14.80;;;;;;;-5.07;80.98;101522.23;107749;1257;71510;-67
2023/12/05 05:47:00;;;;;;;24.90;15.00;;;;;;;-5.12;80.81;101522.64;107916;1257;71115;-68
2023/12/05 05:49:29;;;;;;;25.50;15.10;;;;;;;-5.13;81.07;101522.80;107958;1257;60419;-67
2023/12/05 05:51:57;;;;;;;24.70;14.60;;;;;;;-5.12;80.89;101523.39;107967;1257;60165;-69
2023/12/05 05:54:24;;;;;;;24.70;14.90;;;;;;;-5.11;80.91;101526.95;108011;1257;72594;-69
2023/12/05 05:56:52;;;;;;;26.30;14.60;;;;;;;-5.10;81.02;101528.55;107868;1257;72733;-69
2023/12/05 05:59:20;;;;;;;24.80;14.80;;;;;;;-5.11;80.87;101534.02;107949;1260;71393;-67
2023/12/05 06:01:47;;;;;;;23.30;14.00;;;;;;;-5.13;81.04;101535.45;107779;1257;61094;-69
2023/12/05 06:04:15;;;;;;;25.80;15.40;;;;;;;-5.13;80.98;101542.55;107998;1256;60304;-69
2023/12/05 06:06:43;;;;;;;30.40;15.70;;;;;;;-5.12;80.89;101545.41;107934;1256;72733;-68
2023/12/05 06:09:11;;;;;;;27.30;15.20;;;;;;;-5.11;81.05;101547.38;107892;1257;73078;-69
2023/12/05 06:11:39;;;;;;;27.90;15.50;;;;;;;-5.09;81.04;101550.52;107840;1257;71384;-68
2023/12/05 06:14:07;;;;;;;27.90;16.10;;;;;;;-5.08;81.08;101550.80;107924;1257;60296;-68
2023/12/05 06:16:34;;;;;;;23.90;15.10;;;;;;;-5.07;81.17;101553.69;108098;1256;60373;-69
2023/12/05 06:19:03;;;;;;;28.70;16.10;;;;;;;-5.04;81.45;101556.36;107768;1257;73822;-68
2023/12/05 06:21:31;;;;;;;27.80;16.30;;;;;;;-4.99;81.77;101559.20;107975;1257;71612;-68
2023/12/05 06:23:59;;;;;;;26.60;15.70;;;;;;;-4.91;81.80;101562.70;107863;1257;71419;-67
2023/12/05 06:26:28;;;;;;;20.90;13.00;;;;;;;-4.88;81.71;101569.28;107957;1257;60329;-67
2023/12/05 06:28:56;;;;;;;32.70;20.10;;;;;;;-4.92;81.48;101571.19;107973;1256;60341;-67
2023/12/05 06:31:24;;;;;;;32.60;18.60;;;;;;;-4.98;81.03;101575.84;107949;1257;72647;-68
2023/12/05 06:33:52;;;;;;;30.10;18.70;;;;;;;-5.04;81.20;101573.25;107930;1258;71728;-68
2023/12/05 06:36:20;;;;;;;33.20;19.50;;;;;;;-5.09;81.36;101577.66;107910;1257;73009;-67
2023/12/05 06:38:48;;;;;;;29.90;18.60;;;;;;;-5.07;81.66;101583.02;107938;1256;60403;-68
2023/12/05 06:41:16;;;;;;;30.70;17.20;;;;;;;-5.00;81.63;101584.01;108047;1257;59652;-67
2023/12/05 06:43:43;;;;;;;29.30;18.10;;;;;;;-4.91;82.14;101575.77;107867;1256;72553;-67
2023/12/05 06:46:11;;;;;;;27.80;17.70;;;;;;;-4.81;82.32;101572.52;107875;1257;71533;-69
2023/12/05 06:48:39;;;;;;;32.20;17.30;;;;;;;-4.72;82.35;101570.69;107955;1257;72954;-68
2023/12/05 06:51:08;;;;;;;27.80;16.30;;;;;;;-4.68;82.34;101572.39;107864;1257;60362;-68
2023/12/05 06:53:38;;;;;;;27.70;16.90;;;;;;;-4.69;82.36;101569.38;107874;1260;60281;-70
2023/12/05 06:56:11;;;;;;;28.40;17.00;;;;;;;-4.81;82.70;101567.98;107900;1256;72566;-68
2023/12/05 06:58:38;;;;;;;24.60;15.40;;;;;;;-4.81;83.26;101568.33;107887;1257;71977;-67
2023/12/05 07:01:07;;;;;;;29.10;17.50;;;;;;;-4.81;83.45;101564.64;107893;1260;71300;-67
2023/12/05 07:03:34;;;;;;;32.10;19.20;;;;;;;-4.79;83.87;101566.21;107879;1257;60533;-67
2023/12/05 07:06:14;;;;;;;28.60;17.60;;;;;;;-4.71;84.20;101563.98;107913;1256;60213;-67
2023/12/05 07:08:42;;;;;;;29.90;18.00;;;;;;;-4.59;84.40;101566.42;107884;1257;73887;-66
2023/12/05 07:11:09;;;;;;;22.00;14.20;;;;;;;-4.50;84.36;101565.15;107937;1257;72744;-67
2023/12/05 07:13:37;;;;;;;28.20;17.20;;;;;;;-4.41;84.11;101569.31;107830;1256;71433;-67
2023/12/05 07:16:06;;;;;;;31.50;19.40;;;;;;;-4.37;84.05;101566.93;108134;1257;60673;-67
2023/12/05 07:18:34;;;;;;;33.00;19.40;;;;;;;-4.31;83.91;101568.70;108099;1254;60045;-68
2023/12/05 07:21:01;;;;;;;28.10;17.30;;;;;;;-4.19;84.22;101565.18;108102;1254;72438;-67
2023/12/05 07:23:29;;;;;;;29.90;18.60;;;;;;;-4.06;84.32;101558.46;108249;1253;71851;-67
2023/12/05 07:25:57;;;;;;;31.40;18.20;;;;;;;-3.91;84.67;101561.44;108163;1254;71248;-67
2023/12/05 07:28:25;;;;;;;30.80;18.60;;;;;;;-3.81;84.49;101566.42;108134;1253;60277;-66
2023/12/05 07:30:53;;;;;;;29.10;18.90;;;;;;;-3.73;84.89;101574.86;108168;1254;60403;-67
2023/12/05 07:33:22;;;;;;;26.60;16.70;;;;;;;-3.54;84.68;101579.39;108017;1254;72608;-67
2023/12/05 07:35:50;;;;;;;30.00;18.60;;;;;;;-3.41;84.12;101577.00;107945;1254;71591;-67
2023/12/05 07:38:18;;;;;;;28.50;18.30;;;;;;;-3.30;83.82;101580.66;108060;1254;72658;-68
2023/12/05 07:40:46;;;;;;;27.70;16.60;;;;;;;-3.18;83.62;101581.78;108134;1254;60486;-67
2023/12/05 07:43:27;;;;;;;29.20;18.30;;;;;;;-3.07;83.56;101582.39;108173;1253;60318;-68
2023/12/05 07:46:54;;;;;;;28.30;17.50;;;;;;;-2.88;83.40;101587.57;108069;1254;73944;-67
2023/12/05 07:49:22;;;;;;;27.60;18.10;;;;;;;-2.77;83.19;101586.89;108099;1254;72639;-67
2023/12/05 07:51:50;;;;;;;32.50;19.10;;;;;;;-2.64;83.19;101586.67;108100;1254;71417;-67
2023/12/05 07:54:17;;;;;;;28.30;17.70;;;;;;;-2.53;82.89;101582.33;108155;1253;59761;-67
2023/12/05 07:56:45;;;;;;;31.80;19.40;;;;;;;-2.41;82.61;101577.52;108108;1254;59167;-67
2023/12/05 07:59:13;;;;;;;29.20;18.70;;;;;;;-2.29;82.53;101575.70;108067;1254;72384;-67
2023/12/05 08:01:42;;;;;;;29.80;18.40;;;;;;;-2.19;82.04;101579.04;108043;1254;71157;-66
2023/12/05 08:04:10;;;;;;;28.50;18.10;;;;;;;-2.09;81.72;101573.59;108175;1254;71122;-66
2023/12/05 08:06:38;;;;;;;30.10;19.10;;;;;;;-1.98;81.27;101571.25;108115;1254;60527;-67
2023/12/05 08:09:06;;;;;;;29.60;18.60;;;;;;;-1.87;80.75;101569.31;108126;1254;60067;-67
2023/12/05 08:11:35;;;;;;;26.90;17.50;;;;;;;-1.77;80.58;101568.54;108087;1254;71948;-68
2023/12/05 08:14:03;;;;;;;26.50;17.60;;;;;;;-1.68;80.08;101561.31;108100;1254;71401;-66
2023/12/05 08:16:31;;;;;;;23.90;16.40;;;;;;;-1.56;79.69;101557.58;107912;1259;74792;-66
2023/12/05 08:18:59;;;;;;;29.80;18.70;;;;;;;-1.55;78.98;101555.52;108024;1260;60830;-68
2023/12/05 08:21:26;;;;;;;26.20;17.40;;;;;;;-1.52;78.42;101555.23;108157;1253;60344;-68
2023/12/05 08:23:54;;;;;;;27.70;18.50;;;;;;;-1.46;77.92;101553.92;108034;1254;72556;-67
2023/12/05 08:26:22;;;;;;;27.80;18.50;;;;;;;-1.39;77.31;101556.74;108063;1254;71415;-67
2023/12/05 08:28:50;;;;;;;27.10;17.70;;;;;;;-1.35;76.62;101559.60;108026;1254;72458;-67
2023/12/05 08:31:18;;;;;;;26.20;16.80;;;;;;;-1.27;76.14;101557.45;108105;1254;60424;-67
2023/12/05 08:33:45;;;;;;;25.70;17.10;;;;;;;-1.18;76.01;101555.67;108151;1253;60081;-68
2023/12/05 08:36:13;;;;;;;24.70;16.40;;;;;;;-1.09;75.47;101554.86;108187;1254;72543;-67
2023/12/05 08:38:41;;;;;;;24.10;16.10;;;;;;;-0.97;75.09;101559.23;108178;1254;75177;-67
2023/12/05 08:41:09;;;;;;;25.90;17.70;;;;;;;-0.86;74.62;101553.20;108115;1254;71486;-66
2023/12/05 08:43:36;;;;;;;25.20;17.60;;;;;;;-0.73;74.46;101557.30;108152;1253;60435;-68
2023/12/05 08:46:04;;;;;;;26.70;17.40;;;;;;;-0.63;73.78;101555.30;108130;1254;60250;-67
2023/12/05 08:48:35;;;;;;;25.10;16.40;;;;;;;-0.76;74.12;101546.41;108112;1254;72352;-68
2023/12/05 08:51:03;;;;;;;24.10;16.40;;;;;;;-0.43;73.72;101537.27;108214;1254;71452;-67
2023/12/05 08:53:31;;;;;;;24.70;16.20;;;;;;;-0.28;73.08;101535.67;108080;1254;71440;-67
2023/12/05 08:55:58;;;;;;;23.80;15.80;;;;;;;-0.20;72.29;101533.95;108171;1254;60389;-67
2023/12/05 08:58:26;;;;;;;22.10;15.40;;;;;;;-0.09;71.74;101530.71;108162;1254;60197;-67
2023/12/05 09:00:54;;;;;;;22.20;15.90;;;;;;;0.01;71.24;101528.55;108139;1258;72659;-67
2023/12/05 09:03:22;;;;;;;25.50;17.70;;;;;;;0.08;70.57;101515.71;108086;1254;71910;-67
2023/12/05 09:05:50;;;;;;;24.40;16.30;;;;;;;0.06;70.18;101508.12;108128;1254;71419;-66
2023/12/05 09:08:18;;;;;;;23.30;17.00;;;;;;;0.15;69.62;101508.30;108141;1254;59241;-66
2023/12/05 09:10:46;;;;;;;24.60;16.70;;;;;;;0.21;69.16;101512.10;108173;1254;61801;-66
2023/12/05 09:13:16;;;;;;;25.30;16.70;;;;;;;0.30;68.85;101510.65;108196;1254;73036;-67
2023/12/05 09:15:44;;;;;;;21.20;15.10;;;;;;;0.37;68.33;101507.85;108098;1254;72245;-66
2023/12/05 09:18:13;;;;;;;25.20;16.80;;;;;;;0.40;67.98;101503.17;108098;1254;71410;-66
2023/12/05 09:20:41;;;;;;;25.30;17.50;;;;;;;0.41;67.68;101499.08;108070;1257;59281;-66
2023/12/05 09:23:11;;;;;;;23.60;16.80;;;;;;;0.34;66.86;101495.66;108056;1254;60427;-67
2023/12/05 09:25:39;;;;;;;28.50;19.30;;;;;;;0.26;66.72;101488.96;108036;1254;72558;-66
2023/12/05 09:28:07;;;;;;;26.80;17.70;;;;;;;0.27;66.74;101488.91;108114;1254;72725;-65
2023/12/05 09:30:35;;;;;;;29.00;17.40;;;;;;;0.24;66.52;101485.13;108049;1254;71438;-66
2023/12/05 09:33:03;;;;;;;25.60;17.90;;;;;;;0.16;66.27;101482.83;108140;1254;60358;-67
2023/12/05 09:35:30;;;;;;;25.50;18.00;;;;;;;0.09;66.15;101479.44;108136;1254;60427;-67
2023/12/05 09:37:58;;;;;;;23.80;16.40;;;;;;;0.02;66.46;101476.88;108096;1254;76099;-67
2023/12/05 09:40:26;;;;;;;23.50;16.40;;;;;;;0.07;66.74;101474.70;108103;1254;73139;-67
2023/12/05 09:42:53;;;;;;;28.00;18.60;;;;;;;0.14;66.64;101480.09;108093;1254;71338;-66
2023/12/05 09:45:28;;;;;;;25.30;16.60;;;;;;;0.17;66.26;101479.89;107958;1254;60925;-65
2023/12/05 09:47:57;;;;;;;26.00;17.50;;;;;;;0.19;66.25;101475.64;108211;1255;60431;-66
2023/12/05 09:50:25;;;;;;;25.90;17.30;;;;;;;0.24;66.23;101475.19;108248;1254;73653;-65
2023/12/05 09:52:53;;;;;;;29.60;19.80;;;;;;;0.22;66.11;101478.98;108195;1254;70630;-66
2023/12/05 09:55:21;;;;;;;28.00;19.80;;;;;;;0.30;66.00;101478.08;108144;1254;72760;-66
2023/12/05 09:57:49;;;;;;;26.10;17.90;;;;;;;0.35;66.24;101475.29;108053;1254;60418;-66
2023/12/05 10:00:18;;;;;;;27.90;18.70;;;;;;;0.45;66.22;101477.11;108111;1254;62279;-66
2023/12/05 10:02:46;;;;;;;26.70;17.60;;;;;;;0.53;66.33;101472.10;108076;1253;72634;-66
2023/12/05 10:05:14;;;;;;;25.30;17.40;;;;;;;0.69;66.18;101476.98;108079;1254;72691;-67
2023/12/05 10:07:43;;;;;;;31.30;19.50;;;;;;;0.78;65.96;101478.02;108107;1254;71456;-65
2023/12/05 10:10:11;;;;;;;26.90;18.20;;;;;;;0.87;65.77;101474.13;108113;1254;60721;-66
2023/12/05 10:12:38;;;;;;;26.60;17.60;;;;;;;0.96;65.64;101470.41;107912;1254;60421;-67
2023/12/05 10:15:07;;;;;;;26.20;18.40;;;;;;;0.97;65.25;101468.89;108109;1259;72612;-67
2023/12/05 10:17:35;;;;;;;26.30;18.00;;;;;;;1.06;65.02;101462.28;108201;1253;73295;-67
2023/12/05 10:20:04;;;;;;;24.30;17.20;;;;;;;1.09;64.73;101465.42;108151;1254;74879;-66
2023/12/05 10:22:32;;;;;;;23.50;15.70;;;;;;;1.15;64.74;101470.13;108130;1254;60392;-66
2023/12/05 10:25:00;;;;;;;23.30;15.60;;;;;;;1.19;64.59;101471.19;108181;1254;60293;-66
2023/12/05 10:27:27;;;;;;;25.60;17.20;;;;;;;1.23;64.73;101474.16;108101;1254;72590;-67
2023/12/05 10:29:55;;;;;;;20.80;14.40;;;;;;;1.30;64.48;101473.32;108149;1254;72663;-66
2023/12/05 10:32:27;;;;;;;24.60;16.00;;;;;;;1.29;64.56;101473.48;108107;1254;72678;-66
2023/12/05 10:35:01;;;;;;;22.10;14.30;;;;;;;1.31;64.68;101470.80;108145;1254;59393;-67
2023/12/05 10:37:29;;;;;;;25.60;16.50;;;;;;;1.36;64.37;101466.36;108009;1254;62132;-66
2023/12/05 10:39:58;;;;;;;29.50;18.10;;;;;;;1.35;64.34;101463.63;108055;1254;76411;-66
2023/12/05 10:42:29;;;;;;;27.40;17.40;;;;;;;1.43;64.27;101461.58;108103;1254;72705;-67
2023/12/05 10:44:57;;;;;;;27.70;19.40;;;;;;;1.45;64.19;101462.27;108040;1259;73270;-67
2023/12/05 10:47:26;;;;;;;30.20;18.50;;;;;;;1.48;64.24;101457.54;107978;1254;60226;-67
2023/12/05 10:49:55;;;;;;;28.60;16.80;;;;;;;1.47;64.40;101459.15;108092;1256;60358;-68
2023/12/05 10:52:24;;;;;;;26.60;17.40;;;;;;;1.51;64.34;101456.33;108093;1254;72993;-68
2023/12/05 10:54:56;;;;;;;24.90;16.00;;;;;;;1.61;64.04;101460.33;107950;1254;72824;-68
2023/12/05 10:57:30;;;;;;;23.70;15.80;;;;;;;1.56;63.98;101458.66;108065;1257;73100;-68
2023/12/05 10:59:58;;;;;;;22.80;15.50;;;;;;;1.55;63.71;101459.78;108109;1256;60306;-67
2023/12/05 11:02:27;;;;;;;24.40;15.50;;;;;;;1.65;63.56;101461.16;107990;1254;60435;-67
2023/12/05 11:04:55;;;;;;;20.00;13.90;;;;;;;1.72;63.30;101461.08;107924;1254;73949;-68
2023/12/05 11:07:23;;;;;;;23.10;16.30;;;;;;;1.76;63.25;101456.23;108051;1257;71628;-68
2023/12/05 11:09:50;;;;;;;23.70;16.40;;;;;;;1.79;63.05;101454.45;107893;1254;72819;-68
2023/12/05 11:12:18;;;;;;;25.70;16.30;;;;;;;1.82;62.71;101446.79;108002;1254;60383;-67